sensor_id;sensor_type;location;lat;lon;timestamp;pressure;altitude;pressure_sealevel;temperature;humidity
19508;BME280;40157;42.566;27.526;2023-03-11T00:01:44;99463.25;;;16.45;81.93
19508;BME280;40157;42.566;27.526;2023-03-11T00:03:45;99443.09;;;16.41;81.90
19508;BME280;40157;42.566;27.526;2023-03-11T00:05:45;99445.03;;;16.34;82.23
19508;BME280;40157;42.566;27.526;2023-03-11T00:07:46;99440.78;;;16.28;82.53
19508;BME280;40157;42.566;27.526;2023-03-11T00:09:46;99435.44;;;16.30;82.62
19508;BME280;40157;42.566;27.526;2023-03-11T00:11:47;99393.53;;;16.16;82.40
19508;BME280;40157;42.566;27.526;2023-03-11T00:13:47;99399.00;;;16.10;82.65
19508;BME280;40157;42.566;27.526;2023-03-11T00:15:49;99416.19;;;16.25;82.71
19508;BME280;40157;42.566;27.526;2023-03-11T00:17:50;99412.81;;;16.20;82.77
19508;BME280;40157;42.566;27.526;2023-03-11T00:19:51;99385.91;;;16.05;83.15
19508;BME280;40157;42.566;27.526;2023-03-11T00:21:51;99365.91;;;15.95;83.11
19508;BME280;40157;42.566;27.526;2023-03-11T00:23:52;99401.66;;;16.08;83.54
19508;BME280;40157;42.566;27.526;2023-03-11T00:25:52;99371.00;;;16.03;83.14
19508;BME280;40157;42.566;27.526;2023-03-11T00:27:53;99384.00;;;16.11;83.45
19508;BME280;40157;42.566;27.526;2023-03-11T00:29:54;99391.00;;;16.12;83.43
19508;BME280;40157;42.566;27.526;2023-03-11T00:31:54;99283.47;;;15.49;83.44
19508;BME280;40157;42.566;27.526;2023-03-11T00:33:55;99344.97;;;15.89;83.58
19508;BME280;40157;42.566;27.526;2023-03-11T00:35:58;99354.59;;;15.90;83.77
19508;BME280;40157;42.566;27.526;2023-03-11T00:38:04;99362.16;;;16.04;83.70
19508;BME280;40157;42.566;27.526;2023-03-11T00:40:06;99369.38;;;15.99;83.57
19508;BME280;40157;42.566;27.526;2023-03-11T00:42:08;99364.84;;;16.02;84.33
19508;BME280;40157;42.566;27.526;2023-03-11T00:44:08;99355.22;;;16.00;84.31
19508;BME280;40157;42.566;27.526;2023-03-11T00:46:09;99325.94;;;15.76;84.29
19508;BME280;40157;42.566;27.526;2023-03-11T00:48:10;99345.56;;;15.99;84.01
19508;BME280;40157;42.566;27.526;2023-03-11T00:50:16;99325.78;;;15.82;84.11
19508;BME280;40157;42.566;27.526;2023-03-11T00:52:17;99354.28;;;16.02;84.45
19508;BME280;40157;42.566;27.526;2023-03-11T00:54:18;99356.06;;;16.00;84.52
19508;BME280;40157;42.566;27.526;2023-03-11T00:56:19;99347.25;;;16.01;83.85
19508;BME280;40157;42.566;27.526;2023-03-11T00:58:20;99278.78;;;15.61;83.59
19508;BME280;40157;42.566;27.526;2023-03-11T01:00:27;99355.81;;;16.09;83.48
19508;BME280;40157;42.566;27.526;2023-03-11T01:02:28;99347.28;;;16.00;83.56
19508;BME280;40157;42.566;27.526;2023-03-11T01:04:29;99306.53;;;15.77;83.02
19508;BME280;40157;42.566;27.526;2023-03-11T01:06:29;99335.03;;;15.97;83.07
19508;BME280;40157;42.566;27.526;2023-03-11T01:08:30;99273.25;;;15.68;82.75
19508;BME280;40157;42.566;27.526;2023-03-11T01:10:32;99347.00;;;16.11;82.73
19508;BME280;40157;42.566;27.526;2023-03-11T01:12:33;99357.38;;;16.17;82.46
19508;BME280;40157;42.566;27.526;2023-03-11T01:14:33;99346.84;;;16.15;82.31
19508;BME280;40157;42.566;27.526;2023-03-11T01:16:34;99331.00;;;16.14;82.25
19508;BME280;40157;42.566;27.526;2023-03-11T01:18:35;99325.16;;;16.04;82.40
19508;BME280;40157;42.566;27.526;2023-03-11T01:20:37;99307.88;;;15.92;82.56
19508;BME280;40157;42.566;27.526;2023-03-11T01:22:37;99321.81;;;15.97;82.56
19508;BME280;40157;42.566;27.526;2023-03-11T01:24:38;99296.38;;;15.93;82.73
19508;BME280;40157;42.566;27.526;2023-03-11T01:26:38;99294.47;;;15.98;82.62
19508;BME280;40157;42.566;27.526;2023-03-11T01:28:39;99291.00;;;15.96;82.52
19508;BME280;40157;42.566;27.526;2023-03-11T01:30:40;99251.59;;;15.57;82.32
19508;BME280;40157;42.566;27.526;2023-03-11T01:32:41;99241.44;;;15.42;82.33
19508;BME280;40157;42.566;27.526;2023-03-11T01:34:42;99299.72;;;15.67;82.75
19508;BME280;40157;42.566;27.526;2023-03-11T01:36:42;99291.84;;;15.65;83.11
19508;BME280;40157;42.566;27.526;2023-03-11T01:38:43;99309.50;;;15.63;83.09
19508;BME280;40157;42.566;27.526;2023-03-11T01:40:46;99279.88;;;15.52;83.55
19508;BME280;40157;42.566;27.526;2023-03-11T01:42:47;99283.44;;;15.51;83.74
19508;BME280;40157;42.566;27.526;2023-03-11T01:44:47;99272.88;;;15.51;84.03
19508;BME280;40157;42.566;27.526;2023-03-11T01:48:56;99272.78;;;15.54;84.38
19508;BME280;40157;42.566;27.526;2023-03-11T01:50:57;99269.50;;;15.46;84.52
19508;BME280;40157;42.566;27.526;2023-03-11T01:52:58;99251.75;;;15.51;84.20
19508;BME280;40157;42.566;27.526;2023-03-11T01:54:58;99252.13;;;15.68;83.89
19508;BME280;40157;42.566;27.526;2023-03-11T01:57:01;99257.28;;;15.73;83.78
19508;BME280;40157;42.566;27.526;2023-03-11T01:59:05;99284.56;;;15.73;84.02
19508;BME280;40157;42.566;27.526;2023-03-11T02:01:07;99258.34;;;15.67;83.80
19508;BME280;40157;42.566;27.526;2023-03-11T02:03:16;99223.44;;;15.56;83.62
19508;BME280;40157;42.566;27.526;2023-03-11T02:05:21;99207.66;;;15.53;83.40
19508;BME280;40157;42.566;27.526;2023-03-11T02:07:22;99238.75;;;15.75;83.56
19508;BME280;40157;42.566;27.526;2023-03-11T02:09:23;99235.44;;;15.66;83.02
19508;BME280;40157;42.566;27.526;2023-03-11T02:11:28;99243.34;;;15.68;83.09
19508;BME280;40157;42.566;27.526;2023-03-11T02:13:32;99253.06;;;15.67;82.99
19508;BME280;40157;42.566;27.526;2023-03-11T02:15:34;99240.09;;;15.58;83.08
19508;BME280;40157;42.566;27.526;2023-03-11T02:17:37;99246.31;;;15.57;83.35
19508;BME280;40157;42.566;27.526;2023-03-11T02:21:55;99230.25;;;15.63;83.30
19508;BME280;40157;42.566;27.526;2023-03-11T02:24:23;99191.28;;;15.40;83.24
19508;BME280;40157;42.566;27.526;2023-03-11T02:26:57;99187.03;;;15.36;83.39
19508;BME280;40157;42.566;27.526;2023-03-11T02:29:00;99188.88;;;15.32;82.93
19508;BME280;40157;42.566;27.526;2023-03-11T02:31:03;99232.25;;;15.55;82.89
19508;BME280;40157;42.566;27.526;2023-03-11T02:33:04;99220.19;;;15.46;83.01
19508;BME280;40157;42.566;27.526;2023-03-11T02:35:05;99224.06;;;15.33;83.33
19508;BME280;40157;42.566;27.526;2023-03-11T02:37:12;99218.91;;;15.28;83.55
19508;BME280;40157;42.566;27.526;2023-03-11T02:39:13;99209.56;;;15.16;83.78
19508;BME280;40157;42.566;27.526;2023-03-11T02:41:13;99175.91;;;14.92;83.99
19508;BME280;40157;42.566;27.526;2023-03-11T02:43:17;99124.78;;;14.63;84.51
19508;BME280;40157;42.566;27.526;2023-03-11T02:45:21;99193.03;;;15.10;84.51
19508;BME280;40157;42.566;27.526;2023-03-11T02:47:23;99212.00;;;15.24;84.82
19508;BME280;40157;42.566;27.526;2023-03-11T02:49:24;99215.44;;;15.26;84.33
19508;BME280;40157;42.566;27.526;2023-03-11T02:51:25;99208.47;;;15.24;84.33
19508;BME280;40157;42.566;27.526;2023-03-11T02:53:27;99228.25;;;15.40;84.90
19508;BME280;40157;42.566;27.526;2023-03-11T02:55:29;99191.41;;;15.37;85.02
19508;BME280;40157;42.566;27.526;2023-03-11T02:57:30;99199.72;;;15.53;85.06
19508;BME280;40157;42.566;27.526;2023-03-11T02:59:30;99206.56;;;15.60;84.75
19508;BME280;40157;42.566;27.526;2023-03-11T03:01:31;99191.66;;;15.59;84.42
19508;BME280;40157;42.566;27.526;2023-03-11T03:03:31;99192.50;;;15.60;84.38
19508;BME280;40157;42.566;27.526;2023-03-11T03:05:32;99160.19;;;15.50;84.44
19508;BME280;40157;42.566;27.526;2023-03-11T03:07:33;99190.50;;;15.68;84.30
19508;BME280;40157;42.566;27.526;2023-03-11T03:09:34;99201.75;;;15.75;84.35
19508;BME280;40157;42.566;27.526;2023-03-11T03:11:35;99186.28;;;15.62;84.21
19508;BME280;40157;42.566;27.526;2023-03-11T03:13:35;99201.06;;;15.68;84.33
19508;BME280;40157;42.566;27.526;2023-03-11T03:15:36;99125.78;;;15.23;84.46
19508;BME280;40157;42.566;27.526;2023-03-11T03:17:37;99223.94;;;15.69;84.19
19508;BME280;40157;42.566;27.526;2023-03-11T03:19:38;99148.34;;;15.33;84.44
19508;BME280;40157;42.566;27.526;2023-03-11T03:21:38;99182.78;;;15.60;84.54
19508;BME280;40157;42.566;27.526;2023-03-11T03:23:39;99135.31;;;15.29;85.08
19508;BME280;40157;42.566;27.526;2023-03-11T03:25:43;99161.47;;;15.36;85.80
19508;BME280;40157;42.566;27.526;2023-03-11T03:27:44;99140.72;;;15.24;87.67
19508;BME280;40157;42.566;27.526;2023-03-11T03:29:44;99139.09;;;15.18;89.01
19508;BME280;40157;42.566;27.526;2023-03-11T03:31:45;99150.47;;;15.22;89.88
19508;BME280;40157;42.566;27.526;2023-03-11T03:33:45;99165.75;;;15.09;90.96
19508;BME280;40157;42.566;27.526;2023-03-11T03:35:46;99136.31;;;14.92;92.51
19508;BME280;40157;42.566;27.526;2023-03-11T03:37:47;99160.41;;;15.12;92.86
19508;BME280;40157;42.566;27.526;2023-03-11T03:39:47;99173.72;;;15.08;92.73
19508;BME280;40157;42.566;27.526;2023-03-11T03:41:47;99111.09;;;14.82;91.99
19508;BME280;40157;42.566;27.526;2023-03-11T03:43:48;99150.09;;;15.03;91.63
19508;BME280;40157;42.566;27.526;2023-03-11T03:45:59;99142.06;;;15.08;91.05
19508;BME280;40157;42.566;27.526;2023-03-11T03:48:00;99097.91;;;14.82;90.62
19508;BME280;40157;42.566;27.526;2023-03-11T03:50:03;99153.38;;;15.11;90.61
19508;BME280;40157;42.566;27.526;2023-03-11T03:52:05;99060.56;;;14.66;90.43
19508;BME280;40157;42.566;27.526;2023-03-11T03:54:05;99121.09;;;15.02;89.90
19508;BME280;40157;42.566;27.526;2023-03-11T03:56:08;99134.06;;;15.11;89.84
19508;BME280;40157;42.566;27.526;2023-03-11T03:58:09;99126.09;;;15.12;89.75
19508;BME280;40157;42.566;27.526;2023-03-11T04:00:10;99117.47;;;15.06;89.46
19508;BME280;40157;42.566;27.526;2023-03-11T04:02:11;99088.97;;;14.87;89.04
19508;BME280;40157;42.566;27.526;2023-03-11T04:04:11;99114.09;;;15.01;88.98
19508;BME280;40157;42.566;27.526;2023-03-11T04:06:23;99135.09;;;15.04;88.75
19508;BME280;40157;42.566;27.526;2023-03-11T04:08:24;99120.28;;;14.99;89.02
19508;BME280;40157;42.566;27.526;2023-03-11T04:10:25;99140.38;;;15.04;89.06
19508;BME280;40157;42.566;27.526;2023-03-11T04:12:25;99115.91;;;14.98;88.74
19508;BME280;40157;42.566;27.526;2023-03-11T04:14:26;99089.06;;;14.84;88.63
19508;BME280;40157;42.566;27.526;2023-03-11T04:16:26;99095.94;;;14.90;88.69
19508;BME280;40157;42.566;27.526;2023-03-11T04:18:27;99141.16;;;15.09;88.24
19508;BME280;40157;42.566;27.526;2023-03-11T04:20:27;99120.94;;;15.08;87.81
19508;BME280;40157;42.566;27.526;2023-03-11T04:22:27;99141.88;;;15.14;87.69
19508;BME280;40157;42.566;27.526;2023-03-11T04:24:28;99118.59;;;14.97;87.32
19508;BME280;40157;42.566;27.526;2023-03-11T04:26:28;99115.81;;;15.02;87.48
19508;BME280;40157;42.566;27.526;2023-03-11T04:28:29;99123.53;;;15.09;87.51
19508;BME280;40157;42.566;27.526;2023-03-11T04:30:29;99127.06;;;15.08;87.72
19508;BME280;40157;42.566;27.526;2023-03-11T04:32:30;99131.41;;;15.11;87.72
19508;BME280;40157;42.566;27.526;2023-03-11T04:34:30;99126.00;;;15.15;87.96
19508;BME280;40157;42.566;27.526;2023-03-11T04:36:31;99120.50;;;15.23;88.06
19508;BME280;40157;42.566;27.526;2023-03-11T04:38:31;99096.84;;;15.18;87.76
19508;BME280;40157;42.566;27.526;2023-03-11T04:40:32;99084.59;;;15.17;87.82
19508;BME280;40157;42.566;27.526;2023-03-11T04:42:32;99048.22;;;14.97;87.67
19508;BME280;40157;42.566;27.526;2023-03-11T04:44:34;99099.72;;;15.42;87.60
19508;BME280;40157;42.566;27.526;2023-03-11T04:46:34;99097.84;;;15.46;87.24
19508;BME280;40157;42.566;27.526;2023-03-11T04:48:35;99098.47;;;15.54;87.03
19508;BME280;40157;42.566;27.526;2023-03-11T04:50:35;99103.66;;;15.57;86.74
19508;BME280;40157;42.566;27.526;2023-03-11T04:52:36;99016.03;;;15.14;86.52
19508;BME280;40157;42.566;27.526;2023-03-11T04:54:36;99052.25;;;15.39;86.31
19508;BME280;40157;42.566;27.526;2023-03-11T04:56:37;99094.44;;;15.70;86.35
19508;BME280;40157;42.566;27.526;2023-03-11T04:58:37;98994.72;;;15.22;85.67
19508;BME280;40157;42.566;27.526;2023-03-11T05:00:38;99044.66;;;15.57;85.28
19508;BME280;40157;42.566;27.526;2023-03-11T05:02:39;99042.56;;;15.68;84.96
19508;BME280;40157;42.566;27.526;2023-03-11T05:04:39;98983.03;;;15.29;84.00
19508;BME280;40157;42.566;27.526;2023-03-11T05:06:41;99019.31;;;15.51;83.97
19508;BME280;40157;42.566;27.526;2023-03-11T05:08:42;99065.91;;;15.82;83.94
19508;BME280;40157;42.566;27.526;2023-03-11T05:10:43;99064.34;;;15.75;83.59
19508;BME280;40157;42.566;27.526;2023-03-11T05:12:43;99077.72;;;15.70;83.47
19508;BME280;40157;42.566;27.526;2023-03-11T05:14:44;99091.69;;;15.73;83.69
19508;BME280;40157;42.566;27.526;2023-03-11T05:16:44;99085.00;;;15.62;83.45
19508;BME280;40157;42.566;27.526;2023-03-11T05:18:45;99103.28;;;15.69;83.17
19508;BME280;40157;42.566;27.526;2023-03-11T05:20:46;99104.44;;;15.61;83.59
19508;BME280;40157;42.566;27.526;2023-03-11T05:22:46;99087.91;;;15.54;83.53
19508;BME280;40157;42.566;27.526;2023-03-11T05:24:47;99082.63;;;15.54;83.79
19508;BME280;40157;42.566;27.526;2023-03-11T05:26:48;99087.91;;;15.54;83.61
19508;BME280;40157;42.566;27.526;2023-03-11T05:28:48;99084.72;;;15.43;83.83
19508;BME280;40157;42.566;27.526;2023-03-11T05:30:49;99067.22;;;15.39;84.05
19508;BME280;40157;42.566;27.526;2023-03-11T05:32:49;99087.69;;;15.60;84.06
19508;BME280;40157;42.566;27.526;2023-03-11T05:34:50;99102.41;;;15.69;83.96
19508;BME280;40157;42.566;27.526;2023-03-11T05:36:51;99082.31;;;15.63;83.83
19508;BME280;40157;42.566;27.526;2023-03-11T05:38:51;99113.53;;;15.80;83.52
19508;BME280;40157;42.566;27.526;2023-03-11T05:40:52;99096.91;;;15.75;83.47
19508;BME280;40157;42.566;27.526;2023-03-11T05:42:52;99098.59;;;15.79;82.96
19508;BME280;40157;42.566;27.526;2023-03-11T05:44:53;99106.25;;;15.87;83.14
19508;BME280;40157;42.566;27.526;2023-03-11T05:46:53;99017.69;;;15.47;82.74
19508;BME280;40157;42.566;27.526;2023-03-11T05:48:54;99107.72;;;15.97;82.72
19508;BME280;40157;42.566;27.526;2023-03-11T05:50:54;99026.63;;;15.43;82.47
19508;BME280;40157;42.566;27.526;2023-03-11T05:52:55;99021.88;;;15.54;82.56
19508;BME280;40157;42.566;27.526;2023-03-11T05:54:55;99095.31;;;15.99;82.60
19508;BME280;40157;42.566;27.526;2023-03-11T05:56:56;99107.31;;;16.09;82.49
19508;BME280;40157;42.566;27.526;2023-03-11T05:58:56;99116.16;;;16.08;82.77
19508;BME280;40157;42.566;27.526;2023-03-11T06:00:57;99078.94;;;15.88;82.28
19508;BME280;40157;42.566;27.526;2023-03-11T06:03:01;99079.56;;;15.96;82.29
19508;BME280;40157;42.566;27.526;2023-03-11T06:05:01;99087.06;;;16.08;82.34
19508;BME280;40157;42.566;27.526;2023-03-11T06:07:02;99084.88;;;16.21;82.75
19508;BME280;40157;42.566;27.526;2023-03-11T06:09:03;99067.97;;;16.27;82.07
19508;BME280;40157;42.566;27.526;2023-03-11T06:11:06;99090.63;;;16.34;81.34
19508;BME280;40157;42.566;27.526;2023-03-11T06:13:08;99070.66;;;16.25;81.44
19508;BME280;40157;42.566;27.526;2023-03-11T06:15:09;99063.53;;;16.27;80.75
19508;BME280;40157;42.566;27.526;2023-03-11T06:17:09;99055.59;;;16.27;80.98
19508;BME280;40157;42.566;27.526;2023-03-11T06:19:11;99058.16;;;16.31;80.49
19508;BME280;40157;42.566;27.526;2023-03-11T06:21:20;99050.16;;;16.32;81.31
19508;BME280;40157;42.566;27.526;2023-03-11T06:23:21;98989.59;;;15.99;80.96
19508;BME280;40157;42.566;27.526;2023-03-11T06:25:22;99050.16;;;16.32;80.50
19508;BME280;40157;42.566;27.526;2023-03-11T06:27:22;99043.25;;;16.28;80.03
19508;BME280;40157;42.566;27.526;2023-03-11T06:29:23;99029.97;;;16.30;79.49
19508;BME280;40157;42.566;27.526;2023-03-11T06:31:27;99062.16;;;16.42;79.26
19508;BME280;40157;42.566;27.526;2023-03-11T06:33:28;99004.41;;;16.03;78.77
19508;BME280;40157;42.566;27.526;2023-03-11T06:35:28;99064.19;;;16.34;79.12
19508;BME280;40157;42.566;27.526;2023-03-11T06:37:29;99037.75;;;16.34;78.87
19508;BME280;40157;42.566;27.526;2023-03-11T06:39:29;99047.47;;;16.34;78.46
19508;BME280;40157;42.566;27.526;2023-03-11T06:41:32;99034.59;;;16.23;78.61
19508;BME280;40157;42.566;27.526;2023-03-11T06:43:35;99058.91;;;16.34;78.26
19508;BME280;40157;42.566;27.526;2023-03-11T06:45:35;99047.56;;;16.31;77.99
19508;BME280;40157;42.566;27.526;2023-03-11T06:47:36;99063.75;;;16.46;77.82
19508;BME280;40157;42.566;27.526;2023-03-11T06:49:36;99037.53;;;16.40;77.83
19508;BME280;40157;42.566;27.526;2023-03-11T06:51:40;98965.97;;;15.95;78.11
19508;BME280;40157;42.566;27.526;2023-03-11T06:53:40;99031.84;;;16.26;78.22
19508;BME280;40157;42.566;27.526;2023-03-11T06:55:41;99041.41;;;16.30;78.17
19508;BME280;40157;42.566;27.526;2023-03-11T06:57:41;99041.00;;;16.42;78.50
19508;BME280;40157;42.566;27.526;2023-03-11T06:59:46;99033.16;;;16.39;78.95
19508;BME280;40157;42.566;27.526;2023-03-11T07:01:47;99037.84;;;16.56;78.65
19508;BME280;40157;42.566;27.526;2023-03-11T07:03:48;99033.09;;;16.66;78.50
19508;BME280;40157;42.566;27.526;2023-03-11T07:05:52;99031.25;;;16.68;78.34
19508;BME280;40157;42.566;27.526;2023-03-11T07:07:57;98962.75;;;16.35;78.23
19508;BME280;40157;42.566;27.526;2023-03-11T07:09:57;98994.50;;;16.60;78.10
19508;BME280;40157;42.566;27.526;2023-03-11T07:11:58;99002.59;;;16.79;77.87
19508;BME280;40157;42.566;27.526;2023-03-11T07:14:00;99043.50;;;16.96;77.56
19508;BME280;40157;42.566;27.526;2023-03-11T07:16:06;99027.50;;;16.99;77.70
19508;BME280;40157;42.566;27.526;2023-03-11T07:18:06;98992.69;;;16.86;77.34
19508;BME280;40157;42.566;27.526;2023-03-11T07:20:07;99023.66;;;17.08;77.22
19508;BME280;40157;42.566;27.526;2023-03-11T07:22:08;99005.09;;;17.08;77.02
19508;BME280;40157;42.566;27.526;2023-03-11T07:24:11;99022.53;;;17.13;76.01
19508;BME280;40157;42.566;27.526;2023-03-11T07:26:14;98993.72;;;17.06;75.96
19508;BME280;40157;42.566;27.526;2023-03-11T07:28:17;98974.63;;;16.97;75.75
19508;BME280;40157;42.566;27.526;2023-03-11T07:30:18;98994.69;;;17.03;75.14
19508;BME280;40157;42.566;27.526;2023-03-11T07:32:18;98993.03;;;17.00;75.02
19508;BME280;40157;42.566;27.526;2023-03-11T07:34:19;98974.84;;;16.91;74.45
19508;BME280;40157;42.566;27.526;2023-03-11T07:36:21;98984.94;;;17.04;73.91
19508;BME280;40157;42.566;27.526;2023-03-11T07:38:22;98880.44;;;16.44;73.08
19508;BME280;40157;42.566;27.526;2023-03-11T07:40:22;98968.22;;;17.03;72.67
19508;BME280;40157;42.566;27.526;2023-03-11T07:42:23;98979.25;;;17.14;72.34
19508;BME280;40157;42.566;27.526;2023-03-11T07:44:23;98963.59;;;17.08;71.38
19508;BME280;40157;42.566;27.526;2023-03-11T07:46:25;98955.66;;;17.08;70.89
19508;BME280;40157;42.566;27.526;2023-03-11T07:48:26;98977.06;;;17.26;69.27
19508;BME280;40157;42.566;27.526;2023-03-11T07:50:26;98990.34;;;17.46;69.05
19508;BME280;40157;42.566;27.526;2023-03-11T07:52:31;98961.03;;;17.29;67.81
19508;BME280;40157;42.566;27.526;2023-03-11T07:54:32;98999.53;;;17.60;67.40
19508;BME280;40157;42.566;27.526;2023-03-11T07:56:34;98972.31;;;17.56;67.38
19508;BME280;40157;42.566;27.526;2023-03-11T07:58:35;98987.06;;;17.62;67.06
19508;BME280;40157;42.566;27.526;2023-03-11T08:00:35;98923.56;;;17.38;67.03
19508;BME280;40157;42.566;27.526;2023-03-11T08:02:36;98980.22;;;17.78;67.03
19508;BME280;40157;42.566;27.526;2023-03-11T08:04:36;98998.25;;;17.92;66.92
19508;BME280;40157;42.566;27.526;2023-03-11T08:06:41;99010.50;;;17.94;66.96
19508;BME280;40157;42.566;27.526;2023-03-11T08:08:42;98971.19;;;17.62;67.00
19508;BME280;40157;42.566;27.526;2023-03-11T08:10:42;98953.31;;;17.45;67.17
19508;BME280;40157;42.566;27.526;2023-03-11T08:12:43;99013.47;;;17.65;68.18
19508;BME280;40157;42.566;27.526;2023-03-11T08:14:43;98978.84;;;17.47;68.85
19508;BME280;40157;42.566;27.526;2023-03-11T08:16:44;99012.72;;;17.61;69.64
19508;BME280;40157;42.566;27.526;2023-03-11T08:18:46;98953.78;;;17.34;70.33
19508;BME280;40157;42.566;27.526;2023-03-11T08:20:47;99005.22;;;17.50;70.40
19508;BME280;40157;42.566;27.526;2023-03-11T08:22:48;98998.56;;;17.62;70.88
19508;BME280;40157;42.566;27.526;2023-03-11T08:24:51;98999.13;;;17.70;70.74
19508;BME280;40157;42.566;27.526;2023-03-11T08:26:52;98998.34;;;17.67;70.56
19508;BME280;40157;42.566;27.526;2023-03-11T08:28:54;98980.69;;;17.67;70.40
19508;BME280;40157;42.566;27.526;2023-03-11T08:30:55;98982.63;;;17.84;69.82
19508;BME280;40157;42.566;27.526;2023-03-11T08:32:55;98990.31;;;17.92;69.85
19508;BME280;40157;42.566;27.526;2023-03-11T08:34:57;98947.88;;;17.70;70.20
19508;BME280;40157;42.566;27.526;2023-03-11T08:36:57;99012.56;;;18.08;69.84
19508;BME280;40157;42.566;27.526;2023-03-11T08:38:58;98971.53;;;17.97;69.89
19508;BME280;40157;42.566;27.526;2023-03-11T08:40:59;98991.34;;;18.08;69.64
19508;BME280;40157;42.566;27.526;2023-03-11T08:43:00;98973.59;;;18.10;68.89
19508;BME280;40157;42.566;27.526;2023-03-11T08:45:00;98971.69;;;18.14;68.10
19508;BME280;40157;42.566;27.526;2023-03-11T08:47:01;98960.00;;;18.18;68.62
19508;BME280;40157;42.566;27.526;2023-03-11T08:49:02;98954.16;;;18.10;68.30
19508;BME280;40157;42.566;27.526;2023-03-11T08:51:10;98927.09;;;18.02;68.23
19508;BME280;40157;42.566;27.526;2023-03-11T08:53:12;98952.72;;;18.03;67.49
19508;BME280;40157;42.566;27.526;2023-03-11T08:55:15;98954.81;;;18.15;66.85
19508;BME280;40157;42.566;27.526;2023-03-11T08:57:17;98918.38;;;18.00;67.58
19508;BME280;40157;42.566;27.526;2023-03-11T08:59:18;98933.59;;;18.15;66.84
19508;BME280;40157;42.566;27.526;2023-03-11T09:01:18;98913.84;;;18.22;66.14
19508;BME280;40157;42.566;27.526;2023-03-11T09:03:19;98933.47;;;18.39;65.69
19508;BME280;40157;42.566;27.526;2023-03-11T09:05:19;98904.22;;;18.40;65.45
19508;BME280;40157;42.566;27.526;2023-03-11T09:07:21;98930.81;;;18.58;65.16
19508;BME280;40157;42.566;27.526;2023-03-11T09:09:21;98884.94;;;18.35;64.90
19508;BME280;40157;42.566;27.526;2023-03-11T09:11:22;98892.63;;;18.41;65.12
19508;BME280;40157;42.566;27.526;2023-03-11T09:13:23;98953.84;;;18.76;64.75
19508;BME280;40157;42.566;27.526;2023-03-11T09:15:24;98941.28;;;18.80;64.70
19508;BME280;40157;42.566;27.526;2023-03-11T09:17:24;98952.22;;;18.74;64.83
19508;BME280;40157;42.566;27.526;2023-03-11T09:19:25;98922.66;;;18.62;63.69
19508;BME280;40157;42.566;27.526;2023-03-11T09:21:25;98915.47;;;18.64;64.09
19508;BME280;40157;42.566;27.526;2023-03-11T09:23:26;98923.88;;;18.55;64.77
19508;BME280;40157;42.566;27.526;2023-03-11T09:25:26;98921.91;;;18.40;67.15
19508;BME280;40157;42.566;27.526;2023-03-11T09:27:27;98894.50;;;18.00;67.74
19508;BME280;40157;42.566;27.526;2023-03-11T09:29:28;98914.38;;;18.10;68.78
19508;BME280;40157;42.566;27.526;2023-03-11T09:31:28;98941.63;;;17.93;69.61
19508;BME280;40157;42.566;27.526;2023-03-11T09:33:29;98929.97;;;17.75;70.03
19508;BME280;40157;42.566;27.526;2023-03-11T09:35:29;98926.94;;;17.64;70.44
19508;BME280;40157;42.566;27.526;2023-03-11T09:37:30;98919.94;;;17.41;70.45
19508;BME280;40157;42.566;27.526;2023-03-11T09:39:30;98915.50;;;17.41;71.53
19508;BME280;40157;42.566;27.526;2023-03-11T09:44:04;98915.03;;;17.09;73.52
19508;BME280;40157;42.566;27.526;2023-03-11T09:48:48;98911.72;;;16.57;75.20
19508;BME280;40157;42.566;27.526;2023-03-11T09:50:58;98902.66;;;16.40;76.04
19508;BME280;40157;42.566;27.526;2023-03-11T09:55:44;98880.78;;;16.12;77.20
19508;BME280;40157;42.566;27.526;2023-03-11T09:57:45;98908.53;;;16.23;76.80
19508;BME280;40157;42.566;27.526;2023-03-11T09:59:46;98905.66;;;16.06;76.47
19508;BME280;40157;42.566;27.526;2023-03-11T10:01:48;98870.91;;;15.91;76.29
19508;BME280;40157;42.566;27.526;2023-03-11T10:03:51;98873.63;;;15.90;76.30
19508;BME280;40157;42.566;27.526;2023-03-11T10:06:22;98892.69;;;15.98;76.49
19508;BME280;40157;42.566;27.526;2023-03-11T10:10:21;98890.66;;;16.06;77.21
19508;BME280;40157;42.566;27.526;2023-03-11T10:12:43;98892.81;;;15.95;78.03
19508;BME280;40157;42.566;27.526;2023-03-11T10:14:57;98887.41;;;15.98;78.80
19508;BME280;40157;42.566;27.526;2023-03-11T10:19:42;98890.22;;;15.94;78.65
19508;BME280;40157;42.566;27.526;2023-03-11T10:22:08;98874.97;;;15.75;78.60
19508;BME280;40157;42.566;27.526;2023-03-11T10:28:53;98918.47;;;16.17;74.46
19508;BME280;40157;42.566;27.526;2023-03-11T10:31:01;98890.66;;;16.06;72.85
19508;BME280;40157;42.566;27.526;2023-03-11T10:33:12;98908.31;;;16.30;72.63
19508;BME280;40157;42.566;27.526;2023-03-11T10:35:33;98908.66;;;16.20;74.54
19508;BME280;40157;42.566;27.526;2023-03-11T10:37:41;98903.03;;;16.30;77.28
19508;BME280;40157;42.566;27.526;2023-03-11T10:39:46;98899.38;;;16.08;79.22
19508;BME280;40157;42.566;27.526;2023-03-11T10:42:02;98908.66;;;15.95;81.82
19508;BME280;40157;42.566;27.526;2023-03-11T10:44:08;98856.19;;;15.59;81.91
19508;BME280;40157;42.566;27.526;2023-03-11T10:46:27;98862.38;;;15.58;82.28
19508;BME280;40157;42.566;27.526;2023-03-11T10:48:27;98850.28;;;15.51;82.60
19508;BME280;40157;42.566;27.526;2023-03-11T10:50:31;98878.31;;;15.55;83.33
19508;BME280;40157;42.566;27.526;2023-03-11T10:52:43;98883.69;;;15.52;83.78
19508;BME280;40157;42.566;27.526;2023-03-11T10:55:00;98907.78;;;15.69;83.68
19508;BME280;40157;42.566;27.526;2023-03-11T10:59:27;98895.25;;;15.75;85.04
19508;BME280;40157;42.566;27.526;2023-03-11T11:01:28;98896.94;;;15.79;85.11
19508;BME280;40157;42.566;27.526;2023-03-11T11:03:29;98875.97;;;15.72;85.33